sensor_id;sensor_type;location;lat;lon;timestamp;P1;durP1;ratioP1;P2;durP2;ratioP2
56511;SDS011;42408;53.238;5.686;2023-07-29T00:01:42;9.77;;;5.97;;
56511;SDS011;42408;53.238;5.686;2023-07-29T00:04:08;11.77;;;6.70;;
56511;SDS011;42408;53.238;5.686;2023-07-29T00:06:34;12.25;;;6.05;;
56511;SDS011;42408;53.238;5.686;2023-07-29T00:09:01;13.05;;;6.35;;
56511;SDS011;42408;53.238;5.686;2023-07-29T00:13:53;10.38;;;6.07;;
56511;SDS011;42408;53.238;5.686;2023-07-29T00:16:18;13.10;;;6.17;;
56511;SDS011;42408;53.238;5.686;2023-07-29T00:18:47;11.93;;;6.60;;
56511;SDS011;42408;53.238;5.686;2023-07-29T00:21:13;13.07;;;5.75;;
56511;SDS011;42408;53.238;5.686;2023-07-29T00:23:39;12.80;;;6.37;;
56511;SDS011;42408;53.238;5.686;2023-07-29T00:26:04;10.60;;;6.07;;
56511;SDS011;42408;53.238;5.686;2023-07-29T00:28:30;10.03;;;6.03;;
56511;SDS011;42408;53.238;5.686;2023-07-29T00:30:56;10.60;;;6.20;;
56511;SDS011;42408;53.238;5.686;2023-07-29T00:33:21;12.63;;;6.23;;
56511;SDS011;42408;53.238;5.686;2023-07-29T00:35:47;11.97;;;6.07;;
56511;SDS011;42408;53.238;5.686;2023-07-29T00:38:13;10.10;;;5.80;;
56511;SDS011;42408;53.238;5.686;2023-07-29T00:40:38;9.70;;;6.13;;
56511;SDS011;42408;53.238;5.686;2023-07-29T00:43:04;12.90;;;5.60;;
56511;SDS011;42408;53.238;5.686;2023-07-29T00:45:30;9.73;;;5.43;;
56511;SDS011;42408;53.238;5.686;2023-07-29T00:47:57;10.27;;;5.05;;
56511;SDS011;42408;53.238;5.686;2023-07-29T00:52:50;8.85;;;5.03;;
56511;SDS011;42408;53.238;5.686;2023-07-29T00:55:15;10.63;;;5.87;;
56511;SDS011;42408;53.238;5.686;2023-07-29T00:57:41;12.07;;;5.57;;
56511;SDS011;42408;53.238;5.686;2023-07-29T01:00:07;11.13;;;6.23;;
56511;SDS011;42408;53.238;5.686;2023-07-29T01:05:00;12.60;;;5.90;;
56511;SDS011;42408;53.238;5.686;2023-07-29T01:18:24;10.73;;;6.15;;
56511;SDS011;42408;53.238;5.686;2023-07-29T01:20:56;11.45;;;6.25;;
56511;SDS011;42408;53.238;5.686;2023-07-29T01:23:31;10.60;;;6.22;;
56511;SDS011;42408;53.238;5.686;2023-07-29T01:25:58;15.38;;;6.80;;
56511;SDS011;42408;53.238;5.686;2023-07-29T01:28:24;10.63;;;6.40;;
56511;SDS011;42408;53.238;5.686;2023-07-29T01:30:51;10.40;;;6.30;;
56511;SDS011;42408;53.238;5.686;2023-07-29T01:33:25;12.77;;;6.72;;
56511;SDS011;42408;53.238;5.686;2023-07-29T01:35:54;13.65;;;7.53;;
56511;SDS011;42408;53.238;5.686;2023-07-29T01:38:33;10.27;;;7.00;;
56511;SDS011;42408;53.238;5.686;2023-07-29T01:41:03;13.82;;;7.07;;
56511;SDS011;42408;53.238;5.686;2023-07-29T01:43:32;11.57;;;7.32;;
56511;SDS011;42408;53.238;5.686;2023-07-29T01:45:58;13.80;;;8.48;;
56511;SDS011;42408;53.238;5.686;2023-07-29T01:48:25;14.80;;;8.10;;
56511;SDS011;42408;53.238;5.686;2023-07-29T01:50:52;16.25;;;8.30;;
56511;SDS011;42408;53.238;5.686;2023-07-29T01:53:18;12.20;;;6.97;;
56511;SDS011;42408;53.238;5.686;2023-07-29T01:55:43;14.90;;;8.20;;
56511;SDS011;42408;53.238;5.686;2023-07-29T01:58:10;14.70;;;8.20;;
56511;SDS011;42408;53.238;5.686;2023-07-29T02:00:36;13.63;;;7.43;;
56511;SDS011;42408;53.238;5.686;2023-07-29T02:03:01;14.20;;;8.30;;
56511;SDS011;42408;53.238;5.686;2023-07-29T02:05:27;11.53;;;7.97;;
56511;SDS011;42408;53.238;5.686;2023-07-29T02:07:53;14.20;;;7.13;;
56511;SDS011;42408;53.238;5.686;2023-07-29T02:10:18;12.43;;;8.07;;
56511;SDS011;42408;53.238;5.686;2023-07-29T02:12:44;15.70;;;7.70;;
56511;SDS011;42408;53.238;5.686;2023-07-29T02:15:10;12.17;;;6.80;;
56511;SDS011;42408;53.238;5.686;2023-07-29T02:17:36;15.87;;;7.97;;
56511;SDS011;42408;53.238;5.686;2023-07-29T02:20:02;14.88;;;7.75;;
56511;SDS011;42408;53.238;5.686;2023-07-29T02:22:28;11.68;;;7.20;;
56511;SDS011;42408;53.238;5.686;2023-07-29T02:24:54;12.77;;;6.60;;
56511;SDS011;42408;53.238;5.686;2023-07-29T02:27:20;14.67;;;7.67;;
56511;SDS011;42408;53.238;5.686;2023-07-29T02:29:45;9.83;;;6.40;;
56511;SDS011;42408;53.238;5.686;2023-07-29T02:32:11;13.53;;;6.43;;
56511;SDS011;42408;53.238;5.686;2023-07-29T02:34:37;10.53;;;7.07;;
56511;SDS011;42408;53.238;5.686;2023-07-29T02:37:03;12.53;;;6.53;;
56511;SDS011;42408;53.238;5.686;2023-07-29T02:39:28;10.87;;;5.93;;
56511;SDS011;42408;53.238;5.686;2023-07-29T02:41:54;15.37;;;7.07;;
56511;SDS011;42408;53.238;5.686;2023-07-29T02:44:21;12.18;;;6.45;;
56511;SDS011;42408;53.238;5.686;2023-07-29T02:46:46;12.17;;;6.00;;
56511;SDS011;42408;53.238;5.686;2023-07-29T02:49:12;12.17;;;6.23;;
56511;SDS011;42408;53.238;5.686;2023-07-29T02:51:37;12.83;;;5.20;;
56511;SDS011;42408;53.238;5.686;2023-07-29T02:54:03;13.30;;;5.27;;
56511;SDS011;42408;53.238;5.686;2023-07-29T02:56:29;12.43;;;5.50;;
56511;SDS011;42408;53.238;5.686;2023-07-29T02:58:55;11.38;;;4.93;;
56511;SDS011;42408;53.238;5.686;2023-07-29T03:01:22;9.70;;;5.47;;
56511;SDS011;42408;53.238;5.686;2023-07-29T03:03:50;8.73;;;4.97;;
56511;SDS011;42408;53.238;5.686;2023-07-29T03:06:16;12.40;;;4.97;;
56511;SDS011;42408;53.238;5.686;2023-07-29T03:08:41;10.40;;;5.03;;
56511;SDS011;42408;53.238;5.686;2023-07-29T03:11:08;9.80;;;4.83;;
56511;SDS011;42408;53.238;5.686;2023-07-29T03:13:37;12.13;;;4.80;;
56511;SDS011;42408;53.238;5.686;2023-07-29T03:16:06;11.38;;;4.25;;
56511;SDS011;42408;53.238;5.686;2023-07-29T03:18:37;10.07;;;4.35;;
56511;SDS011;42408;53.238;5.686;2023-07-29T03:21:03;10.05;;;4.20;;
56511;SDS011;42408;53.238;5.686;2023-07-29T03:23:30;11.82;;;4.50;;
56511;SDS011;42408;53.238;5.686;2023-07-29T03:25:57;9.60;;;4.05;;
56511;SDS011;42408;53.238;5.686;2023-07-29T03:28:27;9.98;;;4.70;;
56511;SDS011;42408;53.238;5.686;2023-07-29T03:30:54;8.00;;;4.22;;
56511;SDS011;42408;53.238;5.686;2023-07-29T03:33:20;10.88;;;4.30;;
56511;SDS011;42408;53.238;5.686;2023-07-29T03:35:46;11.25;;;4.15;;
56511;SDS011;42408;53.238;5.686;2023-07-29T03:38:12;8.48;;;4.40;;
56511;SDS011;42408;53.238;5.686;2023-07-29T03:40:39;10.02;;;4.60;;
56511;SDS011;42408;53.238;5.686;2023-07-29T03:43:05;8.32;;;4.05;;
56511;SDS011;42408;53.238;5.686;2023-07-29T03:45:31;10.00;;;4.50;;
56511;SDS011;42408;53.238;5.686;2023-07-29T03:47:57;9.02;;;3.95;;
56511;SDS011;42408;53.238;5.686;2023-07-29T03:50:23;8.80;;;4.13;;
56511;SDS011;42408;53.238;5.686;2023-07-29T03:52:49;10.40;;;4.50;;
56511;SDS011;42408;53.238;5.686;2023-07-29T03:55:15;11.45;;;4.38;;
56511;SDS011;42408;53.238;5.686;2023-07-29T03:57:41;9.10;;;4.20;;
56511;SDS011;42408;53.238;5.686;2023-07-29T04:00:08;11.07;;;4.60;;
56511;SDS011;42408;53.238;5.686;2023-07-29T04:02:34;9.98;;;3.90;;
56511;SDS011;42408;53.238;5.686;2023-07-29T04:05:02;9.23;;;4.28;;
56511;SDS011;42408;53.238;5.686;2023-07-29T04:07:28;7.93;;;3.92;;
56511;SDS011;42408;53.238;5.686;2023-07-29T04:09:55;9.38;;;4.28;;
56511;SDS011;42408;53.238;5.686;2023-07-29T04:12:20;8.40;;;4.03;;
56511;SDS011;42408;53.238;5.686;2023-07-29T04:14:46;9.40;;;3.40;;
56511;SDS011;42408;53.238;5.686;2023-07-29T04:17:12;7.53;;;3.57;;
56511;SDS011;42408;53.238;5.686;2023-07-29T04:19:38;7.43;;;3.80;;
56511;SDS011;42408;53.238;5.686;2023-07-29T04:22:03;9.93;;;3.83;;
56511;SDS011;42408;53.238;5.686;2023-07-29T04:24:29;8.23;;;3.87;;
56511;SDS011;42408;53.238;5.686;2023-07-29T04:26:55;9.03;;;4.07;;
56511;SDS011;42408;53.238;5.686;2023-07-29T04:29:20;7.17;;;4.00;;
56511;SDS011;42408;53.238;5.686;2023-07-29T04:31:47;7.95;;;3.78;;
56511;SDS011;42408;53.238;5.686;2023-07-29T04:34:14;10.68;;;4.05;;
56511;SDS011;42408;53.238;5.686;2023-07-29T04:36:39;9.57;;;3.80;;
56511;SDS011;42408;53.238;5.686;2023-07-29T04:39:05;7.70;;;4.27;;
56511;SDS011;42408;53.238;5.686;2023-07-29T04:41:31;9.03;;;4.17;;
56511;SDS011;42408;53.238;5.686;2023-07-29T04:43:56;11.10;;;4.30;;
56511;SDS011;42408;53.238;5.686;2023-07-29T04:46:22;11.27;;;4.60;;
56511;SDS011;42408;53.238;5.686;2023-07-29T04:48:48;6.57;;;3.30;;
56511;SDS011;42408;53.238;5.686;2023-07-29T04:51:13;12.93;;;4.43;;
56511;SDS011;42408;53.238;5.686;2023-07-29T04:53:39;11.10;;;4.10;;
56511;SDS011;42408;53.238;5.686;2023-07-29T04:56:04;9.20;;;3.53;;
56511;SDS011;42408;53.238;5.686;2023-07-29T04:58:30;12.17;;;5.17;;
56511;SDS011;42408;53.238;5.686;2023-07-29T05:00:59;11.73;;;3.75;;
56511;SDS011;42408;53.238;5.686;2023-07-29T05:03:25;8.50;;;3.58;;
56511;SDS011;42408;53.238;5.686;2023-07-29T05:05:51;8.90;;;3.60;;
56511;SDS011;42408;53.238;5.686;2023-07-29T05:08:18;10.07;;;4.25;;
56511;SDS011;42408;53.238;5.686;2023-07-29T05:10:44;8.73;;;3.67;;
56511;SDS011;42408;53.238;5.686;2023-07-29T05:13:13;8.77;;;3.78;;
56511;SDS011;42408;53.238;5.686;2023-07-29T05:15:39;11.60;;;3.97;;
56511;SDS011;42408;53.238;5.686;2023-07-29T05:18:04;9.53;;;4.43;;
56511;SDS011;42408;53.238;5.686;2023-07-29T05:20:30;9.83;;;4.97;;
56511;SDS011;42408;53.238;5.686;2023-07-29T05:22:55;11.33;;;4.97;;
56511;SDS011;42408;53.238;5.686;2023-07-29T05:25:21;10.27;;;4.10;;
56511;SDS011;42408;53.238;5.686;2023-07-29T05:27:47;8.23;;;3.97;;
56511;SDS011;42408;53.238;5.686;2023-07-29T05:30:12;9.80;;;4.50;;
56511;SDS011;42408;53.238;5.686;2023-07-29T05:32:38;9.10;;;4.23;;
56511;SDS011;42408;53.238;5.686;2023-07-29T05:35:04;13.27;;;4.10;;
56511;SDS011;42408;53.238;5.686;2023-07-29T05:37:30;10.98;;;4.10;;
56511;SDS011;42408;53.238;5.686;2023-07-29T05:39:55;10.70;;;4.07;;
56511;SDS011;42408;53.238;5.686;2023-07-29T05:42:21;11.17;;;4.43;;
56511;SDS011;42408;53.238;5.686;2023-07-29T05:44:46;7.70;;;3.67;;
56511;SDS011;42408;53.238;5.686;2023-07-29T05:47:12;8.57;;;4.10;;
56511;SDS011;42408;53.238;5.686;2023-07-29T05:49:38;9.73;;;4.10;;
56511;SDS011;42408;53.238;5.686;2023-07-29T05:52:03;10.43;;;4.90;;
56511;SDS011;42408;53.238;5.686;2023-07-29T05:54:29;11.45;;;4.43;;
56511;SDS011;42408;53.238;5.686;2023-07-29T05:56:55;11.20;;;5.00;;
56511;SDS011;42408;53.238;5.686;2023-07-29T05:59:21;13.37;;;4.83;;
56511;SDS011;42408;53.238;5.686;2023-07-29T06:01:46;12.07;;;5.20;;
56511;SDS011;42408;53.238;5.686;2023-07-29T06:04:12;11.60;;;4.63;;
56511;SDS011;42408;53.238;5.686;2023-07-29T06:06:37;9.50;;;4.63;;
56511;SDS011;42408;53.238;5.686;2023-07-29T06:09:03;11.67;;;4.87;;
56511;SDS011;42408;53.238;5.686;2023-07-29T06:11:29;10.52;;;4.63;;
56511;SDS011;42408;53.238;5.686;2023-07-29T06:13:55;10.00;;;4.27;;
56511;SDS011;42408;53.238;5.686;2023-07-29T06:16:20;15.07;;;5.03;;
56511;SDS011;42408;53.238;5.686;2023-07-29T06:18:46;12.30;;;5.63;;
56511;SDS011;42408;53.238;5.686;2023-07-29T06:21:12;10.02;;;4.43;;
56511;SDS011;42408;53.238;5.686;2023-07-29T06:23:42;9.40;;;3.97;;
56511;SDS011;42408;53.238;5.686;2023-07-29T06:28:34;14.60;;;4.22;;
56511;SDS011;42408;53.238;5.686;2023-07-29T06:30:59;8.77;;;4.17;;
56511;SDS011;42408;53.238;5.686;2023-07-29T06:33:25;11.85;;;4.30;;
56511;SDS011;42408;53.238;5.686;2023-07-29T06:35:51;10.10;;;4.73;;
56511;SDS011;42408;53.238;5.686;2023-07-29T06:38:17;10.30;;;4.10;;
56511;SDS011;42408;53.238;5.686;2023-07-29T06:40:46;13.02;;;4.60;;
56511;SDS011;42408;53.238;5.686;2023-07-29T06:43:13;11.50;;;3.80;;
56511;SDS011;42408;53.238;5.686;2023-07-29T06:45:38;9.73;;;3.87;;
56511;SDS011;42408;53.238;5.686;2023-07-29T06:48:04;9.70;;;3.43;;
56511;SDS011;42408;53.238;5.686;2023-07-29T06:50:30;13.60;;;4.20;;
56511;SDS011;42408;53.238;5.686;2023-07-29T06:52:56;8.90;;;3.93;;
56511;SDS011;42408;53.238;5.686;2023-07-29T06:55:21;8.80;;;3.70;;
56511;SDS011;42408;53.238;5.686;2023-07-29T06:57:47;9.40;;;4.13;;
56511;SDS011;42408;53.238;5.686;2023-07-29T07:00:13;9.57;;;3.67;;
56511;SDS011;42408;53.238;5.686;2023-07-29T07:02:39;8.00;;;3.63;;
56511;SDS011;42408;53.238;5.686;2023-07-29T07:05:04;10.13;;;3.63;;
56511;SDS011;42408;53.238;5.686;2023-07-29T07:07:30;8.70;;;3.57;;
56511;SDS011;42408;53.238;5.686;2023-07-29T07:09:56;8.53;;;3.33;;
56511;SDS011;42408;53.238;5.686;2023-07-29T07:12:21;10.20;;;3.00;;
56511;SDS011;42408;53.238;5.686;2023-07-29T07:14:47;9.30;;;3.47;;
56511;SDS011;42408;53.238;5.686;2023-07-29T07:17:13;8.27;;;2.80;;
56511;SDS011;42408;53.238;5.686;2023-07-29T07:19:39;7.40;;;3.00;;
56511;SDS011;42408;53.238;5.686;2023-07-29T07:22:04;9.07;;;2.80;;
56511;SDS011;42408;53.238;5.686;2023-07-29T07:24:30;10.43;;;3.27;;
56511;SDS011;42408;53.238;5.686;2023-07-29T07:26:56;8.67;;;3.10;;
56511;SDS011;42408;53.238;5.686;2023-07-29T07:29:21;9.37;;;3.97;;
56511;SDS011;42408;53.238;5.686;2023-07-29T07:31:52;7.55;;;2.85;;
56511;SDS011;42408;53.238;5.686;2023-07-29T07:34:18;7.43;;;2.92;;
56511;SDS011;42408;53.238;5.686;2023-07-29T07:36:45;9.77;;;2.95;;
56511;SDS011;42408;53.238;5.686;2023-07-29T07:39:11;10.63;;;2.80;;
56511;SDS011;42408;53.238;5.686;2023-07-29T07:41:37;6.80;;;2.72;;
56511;SDS011;42408;53.238;5.686;2023-07-29T07:44:02;8.80;;;3.23;;
56511;SDS011;42408;53.238;5.686;2023-07-29T07:46:28;9.82;;;2.92;;
56511;SDS011;42408;53.238;5.686;2023-07-29T07:48:54;9.00;;;2.63;;
56511;SDS011;42408;53.238;5.686;2023-07-29T07:51:19;8.27;;;2.90;;
56511;SDS011;42408;53.238;5.686;2023-07-29T07:53:45;7.60;;;2.90;;
56511;SDS011;42408;53.238;5.686;2023-07-29T07:56:11;6.63;;;2.60;;
56511;SDS011;42408;53.238;5.686;2023-07-29T07:58:37;6.83;;;2.63;;
56511;SDS011;42408;53.238;5.686;2023-07-29T08:01:03;7.45;;;2.35;;
56511;SDS011;42408;53.238;5.686;2023-07-29T08:03:30;6.47;;;2.47;;
56511;SDS011;42408;53.238;5.686;2023-07-29T08:05:56;7.18;;;2.80;;
56511;SDS011;42408;53.238;5.686;2023-07-29T08:08:21;6.13;;;2.40;;
56511;SDS011;42408;53.238;5.686;2023-07-29T08:10:47;5.27;;;2.30;;
56511;SDS011;42408;53.238;5.686;2023-07-29T08:13:13;6.03;;;2.17;;
56511;SDS011;42408;53.238;5.686;2023-07-29T08:15:38;6.53;;;2.13;;
56511;SDS011;42408;53.238;5.686;2023-07-29T08:18:04;5.23;;;2.10;;
56511;SDS011;42408;53.238;5.686;2023-07-29T08:20:29;5.37;;;2.40;;
56511;SDS011;42408;53.238;5.686;2023-07-29T08:22:55;7.13;;;2.70;;
56511;SDS011;42408;53.238;5.686;2023-07-29T08:25:21;8.17;;;2.57;;
56511;SDS011;42408;53.238;5.686;2023-07-29T08:27:47;9.33;;;2.77;;
56511;SDS011;42408;53.238;5.686;2023-07-29T08:30:12;5.43;;;2.57;;
56511;SDS011;42408;53.238;5.686;2023-07-29T08:32:38;5.23;;;2.27;;
56511;SDS011;42408;53.238;5.686;2023-07-29T08:35:03;5.43;;;2.70;;
56511;SDS011;42408;53.238;5.686;2023-07-29T08:37:29;7.55;;;2.33;;
56511;SDS011;42408;53.238;5.686;2023-07-29T08:39:56;6.90;;;2.60;;
56511;SDS011;42408;53.238;5.686;2023-07-29T08:42:22;4.53;;;2.10;;
56511;SDS011;42408;53.238;5.686;2023-07-29T08:44:52;7.05;;;2.30;;
56511;SDS011;42408;53.238;5.686;2023-07-29T08:47:19;9.18;;;2.60;;
56511;SDS011;42408;53.238;5.686;2023-07-29T08:49:45;6.00;;;2.70;;
56511;SDS011;42408;53.238;5.686;2023-07-29T08:54:38;6.85;;;2.33;;
56511;SDS011;42408;53.238;5.686;2023-07-29T08:57:04;4.90;;;2.23;;
56511;SDS011;42408;53.238;5.686;2023-07-29T08:59:31;7.10;;;2.63;;
56511;SDS011;42408;53.238;5.686;2023-07-29T09:01:58;7.38;;;2.83;;
56511;SDS011;42408;53.238;5.686;2023-07-29T09:04:24;5.40;;;2.40;;
56511;SDS011;42408;53.238;5.686;2023-07-29T09:06:50;10.13;;;2.63;;
56511;SDS011;42408;53.238;5.686;2023-07-29T09:09:16;7.47;;;2.70;;
56511;SDS011;42408;53.238;5.686;2023-07-29T09:11:43;7.57;;;2.60;;
56511;SDS011;42408;53.238;5.686;2023-07-29T09:14:09;8.48;;;2.78;;
56511;SDS011;42408;53.238;5.686;2023-07-29T09:16:35;7.63;;;2.63;;
56511;SDS011;42408;53.238;5.686;2023-07-29T09:19:03;4.45;;;2.05;;
56511;SDS011;42408;53.238;5.686;2023-07-29T09:21:29;7.53;;;2.60;;
56511;SDS011;42408;53.238;5.686;2023-07-29T09:23:56;6.57;;;2.38;;
56511;SDS011;42408;53.238;5.686;2023-07-29T09:26:22;6.60;;;2.40;;
56511;SDS011;42408;53.238;5.686;2023-07-29T09:28:52;5.78;;;2.58;;
56511;SDS011;42408;53.238;5.686;2023-07-29T09:31:21;5.72;;;2.35;;
56511;SDS011;42408;53.238;5.686;2023-07-29T09:33:48;6.93;;;2.58;;
56511;SDS011;42408;53.238;5.686;2023-07-29T09:36:14;4.50;;;2.10;;
56511;SDS011;42408;53.238;5.686;2023-07-29T09:38:40;5.80;;;2.28;;
56511;SDS011;42408;53.238;5.686;2023-07-29T09:41:06;5.13;;;2.30;;
56511;SDS011;42408;53.238;5.686;2023-07-29T09:43:33;6.63;;;2.65;;
56511;SDS011;42408;53.238;5.686;2023-07-29T09:46:00;5.88;;;2.50;;
56511;SDS011;42408;53.238;5.686;2023-07-29T09:48:26;5.50;;;2.40;;
56511;SDS011;42408;53.238;5.686;2023-07-29T09:50:54;8.02;;;2.40;;
56511;SDS011;42408;53.238;5.686;2023-07-29T09:53:20;5.72;;;2.22;;
56511;SDS011;42408;53.238;5.686;2023-07-29T09:55:47;4.65;;;2.22;;
56511;SDS011;42408;53.238;5.686;2023-07-29T09:58:15;5.85;;;2.10;;
56511;SDS011;42408;53.238;5.686;2023-07-29T10:00:50;7.30;;;2.42;;
56511;SDS011;42408;53.238;5.686;2023-07-29T10:03:16;6.22;;;2.28;;
56511;SDS011;42408;53.238;5.686;2023-07-29T10:05:44;6.88;;;2.25;;
56511;SDS011;42408;53.238;5.686;2023-07-29T10:08:11;6.95;;;2.10;;
56511;SDS011;42408;53.238;5.686;2023-07-29T10:13:03;3.65;;;1.83;;
56511;SDS011;42408;53.238;5.686;2023-07-29T10:17:56;4.57;;;2.20;;
56511;SDS011;42408;53.238;5.686;2023-07-29T10:20:23;4.80;;;2.17;;
56511;SDS011;42408;53.238;5.686;2023-07-29T10:22:48;6.22;;;2.08;;
56511;SDS011;42408;53.238;5.686;2023-07-29T10:25:17;4.97;;;2.15;;
56511;SDS011;42408;53.238;5.686;2023-07-29T10:27:53;6.88;;;2.28;;
56511;SDS011;42408;53.238;5.686;2023-07-29T10:30:29;4.95;;;2.33;;
56511;SDS011;42408;53.238;5.686;2023-07-29T10:32:57;4.05;;;1.98;;
56511;SDS011;42408;53.238;5.686;2023-07-29T10:35:26;5.40;;;2.33;;
56511;SDS011;42408;53.238;5.686;2023-07-29T10:37:53;6.78;;;2.38;;
56511;SDS011;42408;53.238;5.686;2023-07-29T10:40:19;6.68;;;2.22;;
56511;SDS011;42408;53.238;5.686;2023-07-29T10:42:58;9.68;;;2.92;;
56511;SDS011;42408;53.238;5.686;2023-07-29T10:45:46;9.57;;;2.95;;
56511;SDS011;42408;53.238;5.686;2023-07-29T10:48:13;8.63;;;3.50;;
56511;SDS011;42408;53.238;5.686;2023-07-29T10:53:58;5.72;;;2.20;;
56511;SDS011;42408;53.238;5.686;2023-07-29T10:58:59;5.13;;;1.35;;
56511;SDS011;42408;53.238;5.686;2023-07-29T11:01:56;3.63;;;1.60;;
56511;SDS011;42408;53.238;5.686;2023-07-29T11:04:23;3.47;;;1.50;;
56511;SDS011;42408;53.238;5.686;2023-07-29T11:15:21;5.68;;;1.92;;
56511;SDS011;42408;53.238;5.686;2023-07-29T11:17:57;6.03;;;2.33;;
56511;SDS011;42408;53.238;5.686;2023-07-29T11:20:33;6.32;;;1.88;;
56511;SDS011;42408;53.238;5.686;2023-07-29T11:22:59;6.00;;;2.25;;
56511;SDS011;42408;53.238;5.686;2023-07-29T11:25:27;5.82;;;2.20;;
56511;SDS011;42408;53.238;5.686;2023-07-29T11:27:54;5.43;;;2.50;;
56511;SDS011;42408;53.238;5.686;2023-07-29T11:30:22;5.93;;;2.20;;
56511;SDS011;42408;53.238;5.686;2023-07-29T11:32:48;7.80;;;2.60;;
56511;SDS011;42408;53.238;5.686;2023-07-29T11:35:15;5.38;;;2.20;;
56511;SDS011;42408;53.238;5.686;2023-07-29T11:37:43;6.47;;;2.30;;
56511;SDS011;42408;53.238;5.686;2023-07-29T11:40:16;11.43;;;2.55;;
56511;SDS011;42408;53.238;5.686;2023-07-29T11:42:46;4.82;;;2.03;;
56511;SDS011;42408;53.238;5.686;2023-07-29T11:45:13;6.18;;;2.78;;
56511;SDS011;42408;53.238;5.686;2023-07-29T11:47:39;6.30;;;2.03;;
56511;SDS011;42408;53.238;5.686;2023-07-29T11:50:09;7.97;;;2.20;;
56511;SDS011;42408;53.238;5.686;2023-07-29T11:52:36;5.03;;;1.92;;
56511;SDS011;42408;53.238;5.686;2023-07-29T11:55:02;4.75;;;2.13;;
56511;SDS011;42408;53.238;5.686;2023-07-29T11:57:30;6.80;;;1.90;;
56511;SDS011;42408;53.238;5.686;2023-07-29T11:59:56;6.43;;;2.30;;
56511;SDS011;42408;53.238;5.686;2023-07-29T12:02:22;6.38;;;2.20;;
56511;SDS011;42408;53.238;5.686;2023-07-29T12:04:49;6.72;;;1.98;;
56511;SDS011;42408;53.238;5.686;2023-07-29T12:07:16;8.30;;;2.63;;
56511;SDS011;42408;53.238;5.686;2023-07-29T12:09:43;7.90;;;2.72;;
56511;SDS011;42408;53.238;5.686;2023-07-29T12:12:11;6.90;;;2.55;;
56511;SDS011;42408;53.238;5.686;2023-07-29T12:14:37;7.47;;;2.45;;
56511;SDS011;42408;53.238;5.686;2023-07-29T12:17:03;4.57;;;2.05;;
56511;SDS011;42408;53.238;5.686;2023-07-29T12:19:34;9.52;;;2.63;;
56511;SDS011;42408;53.238;5.686;2023-07-29T12:22:01;5.80;;;2.10;;
56511;SDS011;42408;53.238;5.686;2023-07-29T12:24:29;7.57;;;2.70;;
56511;SDS011;42408;53.238;5.686;2023-07-29T12:26:56;7.00;;;2.60;;
56511;SDS011;42408;53.238;5.686;2023-07-29T12:29:21;6.10;;;2.65;;
56511;SDS011;42408;53.238;5.686;2023-07-29T12:31:48;6.50;;;2.40;;
56511;SDS011;42408;53.238;5.686;2023-07-29T12:34:21;9.15;;;2.80;;
56511;SDS011;42408;53.238;5.686;2023-07-29T12:36:50;7.70;;;2.70;;
56511;SDS011;42408;53.238;5.686;2023-07-29T12:39:17;9.07;;;2.92;;
56511;SDS011;42408;53.238;5.686;2023-07-29T12:41:43;6.47;;;2.60;;
56511;SDS011;42408;53.238;5.686;2023-07-29T12:44:09;5.40;;;2.42;;
56511;SDS011;42408;53.238;5.686;2023-07-29T12:46:34;7.73;;;2.93;;
56511;SDS011;42408;53.238;5.686;2023-07-29T12:49:00;7.97;;;3.07;;
56511;SDS011;42408;53.238;5.686;2023-07-29T12:51:26;7.67;;;2.40;;
56511;SDS011;42408;53.238;5.686;2023-07-29T12:53:53;7.35;;;2.65;;
56511;SDS011;42408;53.238;5.686;2023-07-29T12:56:19;7.15;;;2.60;;
56511;SDS011;42408;53.238;5.686;2023-07-29T12:58:44;6.30;;;2.47;;
56511;SDS011;42408;53.238;5.686;2023-07-29T13:01:10;6.40;;;2.47;;
56511;SDS011;42408;53.238;5.686;2023-07-29T13:03:41;6.32;;;2.72;;
56511;SDS011;42408;53.238;5.686;2023-07-29T13:06:07;7.72;;;2.72;;
56511;SDS011;42408;53.238;5.686;2023-07-29T13:08:33;7.30;;;2.90;;
56511;SDS011;42408;53.238;5.686;2023-07-29T13:10:58;6.77;;;2.40;;
56511;SDS011;42408;53.238;5.686;2023-07-29T13:13:24;5.13;;;2.43;;
56511;SDS011;42408;53.238;5.686;2023-07-29T13:15:50;6.73;;;2.60;;
56511;SDS011;42408;53.238;5.686;2023-07-29T13:18:15;5.07;;;2.30;;
56511;SDS011;42408;53.238;5.686;2023-07-29T13:20:41;5.90;;;2.42;;
56511;SDS011;42408;53.238;5.686;2023-07-29T13:23:07;6.17;;;2.40;;
56511;SDS011;42408;53.238;5.686;2023-07-29T13:25:33;7.57;;;2.77;;
56511;SDS011;42408;53.238;5.686;2023-07-29T13:27:58;9.00;;;2.70;;
56511;SDS011;42408;53.238;5.686;2023-07-29T13:30:24;9.37;;;3.10;;
56511;SDS011;42408;53.238;5.686;2023-07-29T13:32:49;6.70;;;2.73;;
56511;SDS011;42408;53.238;5.686;2023-07-29T13:35:15;5.63;;;2.90;;
56511;SDS011;42408;53.238;5.686;2023-07-29T13:37:41;6.03;;;2.70;;
56511;SDS011;42408;53.238;5.686;2023-07-29T13:40:06;10.37;;;2.97;;
56511;SDS011;42408;53.238;5.686;2023-07-29T13:42:32;5.78;;;3.00;;
56511;SDS011;42408;53.238;5.686;2023-07-29T13:44:58;9.43;;;2.93;;
56511;SDS011;42408;53.238;5.686;2023-07-29T13:47:24;10.90;;;3.00;;
56511;SDS011;42408;53.238;5.686;2023-07-29T13:49:49;7.00;;;2.90;;
56511;SDS011;42408;53.238;5.686;2023-07-29T13:52:15;13.73;;;3.00;;
56511;SDS011;42408;53.238;5.686;2023-07-29T13:54:40;7.37;;;2.60;;
56511;SDS011;42408;53.238;5.686;2023-07-29T13:57:06;6.60;;;2.43;;
56511;SDS011;42408;53.238;5.686;2023-07-29T13:59:32;6.90;;;2.58;;
56511;SDS011;42408;53.238;5.686;2023-07-29T14:01:58;7.13;;;2.30;;
56511;SDS011;42408;53.238;5.686;2023-07-29T14:04:23;5.87;;;2.57;;
56511;SDS011;42408;53.238;5.686;2023-07-29T14:06:49;6.15;;;2.63;;
56511;SDS011;42408;53.238;5.686;2023-07-29T14:09:14;6.53;;;2.10;;
56511;SDS011;42408;53.238;5.686;2023-07-29T14:11:40;7.80;;;2.20;;
56511;SDS011;42408;53.238;5.686;2023-07-29T14:14:06;6.23;;;2.40;;
56511;SDS011;42408;53.238;5.686;2023-07-29T14:16:32;5.75;;;1.88;;
56511;SDS011;42408;53.238;5.686;2023-07-29T14:18:58;6.23;;;2.50;;
56511;SDS011;42408;53.238;5.686;2023-07-29T14:21:24;4.90;;;2.20;;
56511;SDS011;42408;53.238;5.686;2023-07-29T14:23:49;6.80;;;2.28;;
56511;SDS011;42408;53.238;5.686;2023-07-29T14:26:15;5.87;;;2.27;;
56511;SDS011;42408;53.238;5.686;2023-07-29T14:28:41;4.93;;;2.00;;
56511;SDS011;42408;53.238;5.686;2023-07-29T14:31:06;6.23;;;2.13;;
56511;SDS011;42408;53.238;5.686;2023-07-29T14:33:32;6.80;;;2.70;;
56511;SDS011;42408;53.238;5.686;2023-07-29T14:35:58;6.70;;;2.50;;
56511;SDS011;42408;53.238;5.686;2023-07-29T14:38:23;6.73;;;2.43;;
56511;SDS011;42408;53.238;5.686;2023-07-29T14:40:51;5.95;;;2.30;;
56511;SDS011;42408;53.238;5.686;2023-07-29T14:43:19;6.78;;;2.50;;
56511;SDS011;42408;53.238;5.686;2023-07-29T14:45:45;5.43;;;2.00;;
56511;SDS011;42408;53.238;5.686;2023-07-29T14:48:10;8.00;;;2.40;;
56511;SDS011;42408;53.238;5.686;2023-07-29T14:50:36;9.63;;;2.40;;
56511;SDS011;42408;53.238;5.686;2023-07-29T14:53:02;7.10;;;2.23;;
56511;SDS011;42408;53.238;5.686;2023-07-29T14:55:27;3.90;;;2.10;;
56511;SDS011;42408;53.238;5.686;2023-07-29T14:57:53;11.37;;;3.00;;
56511;SDS011;42408;53.238;5.686;2023-07-29T15:00:19;9.67;;;2.53;;
56511;SDS011;42408;53.238;5.686;2023-07-29T15:02:44;4.80;;;1.85;;
56511;SDS011;42408;53.238;5.686;2023-07-29T15:05:10;4.27;;;2.20;;
56511;SDS011;42408;53.238;5.686;2023-07-29T15:07:36;5.20;;;1.80;;
56511;SDS011;42408;53.238;5.686;2023-07-29T15:10:01;4.97;;;2.03;;
56511;SDS011;42408;53.238;5.686;2023-07-29T15:12:27;2.92;;;1.50;;
56511;SDS011;42408;53.238;5.686;2023-07-29T15:14:53;5.27;;;2.03;;
56511;SDS011;42408;53.238;5.686;2023-07-29T15:17:19;3.53;;;1.53;;
56511;SDS011;42408;53.238;5.686;2023-07-29T15:19:44;4.93;;;1.92;;
56511;SDS011;42408;53.238;5.686;2023-07-29T15:22:14;5.57;;;1.73;;